Bloomfield Hills, MI (48302)

2:17 PM EST on December 06, 2016 (GMT -0500)
Hickory Grove Observatory | | Change Station

Elev 951 ft 42.60 °N, 83.28 °W | Updated 9 seconds ago

Light Rain
Light Rain
37.5 °F
Feels Like 38 °F
N
1.0
Wind Variable Wind from WNW
Gusts 6.0 mph

Today
High -- | Low -- °F
--% Chance of Precip.
Yesterday
High -- | Low -- °F
Precip. -- in
Pressure 29.71 in
Visibility 2.5 miles
Clouds Mostly Cloudy 2400 ft
Overcast 3400 ft
Windchill 38 °F
Dew Point 36 °F
Humidity 94%
Rainfall 0.05 in
Snow Depth Not available.
7:48 AM 4:59 PM
Waxing Crescent, 44% visible
METAR KVLL 061915Z AUTO 09006KT 2 1/2SM -RA BKN024 OVC034 04/02 A2971 RMK AO2 T00400020
Pressure 29.71 in
Visibility 2.5 miles
Clouds Mostly Cloudy 2400 ft
Overcast 3400 ft
Windchill 38 °F
Dew Point 36 °F
Humidity 94%
Rainfall 0.05 in
Snow Depth Not available.
7:48 AM 4:59 PM
Waxing Crescent, 44% visible
METAR KVLL 061915Z AUTO 09006KT 2 1/2SM -RA BKN024 OVC034 04/02 A2971 RMK AO2 T00400020

10-Day Weather Forecast

Almanac

Astronomy

Dec. 06, 2016 Rise Set
Actual Time
Civil Twilight
Nautical Twilight
Astronomical Twilight
Moon
Length of Visible Light
Length of Day
Tomorrow will be .
, % of the Moon is Illuminated

Today's Extremes

State Highs State Lows

Community

WunderPhotos

Upload Photos

1,956,015 photos uploaded!

WunderBlog® & News

Nearby

Air Quality

  Air Quality AQ Index Pollutant
Not available.

Snow Depth

Station Depth Elevation

Earthquake Activity

City Distance Mag. Time & Date
Minimum magnitude displayed is 2.5.

Coastal Water Temperatures

Place Temperature

Stations

Nearby Weather Stations

Station Location Temp. Windchill Dew Point Humidity Wind Precip. Elev Updated Type
                   

Watches & Warnings

There are currently no watches in effect.